Archival Weather

South Haven Area Rgnl

South Haven, Michigan (KLWA)

Report from: Saturday, September 30, 2023 5:15 PM EDT
Current time: Saturday, February 24, 2024 11:58 AM EST

Current weather – Weather history – Daily summaries
Weather forecast

Temperature25.0°C (77.0°F)
Dew point17.5°C (63.5°F)
Winds Calm
Visibility10 mi. (16.1 km)
Clouds Sky clear
Altimeter30.22 in.Hg (1023 mB)
Relative humidity63 %
Density altitude1,093 ft. (333 m)
Remarks Fully automated report
Automated weather observing station with precipitation discriminator
Flight conditions Visual Meteorological Conditions
Raw dataKLWA 302115Z AUTO 00000KT 10SM CLR 25/18 A3022 RMK AO2 T02500175
An error has occurred. This application may no longer respond until reloaded. Reload 🗙